createdAt,value
2019-02-11T00:01:09.470Z,4.40
2019-02-11T00:03:39.925Z,4.46
2019-02-11T00:06:13.341Z,4.49
2019-02-11T00:08:44.919Z,4.53
2019-02-11T00:11:15.674Z,4.54
2019-02-11T00:13:46.583Z,4.62
2019-02-11T00:16:17.373Z,4.65
2019-02-11T00:18:47.870Z,4.67
2019-02-11T00:21:18.162Z,4.70
2019-02-11T00:23:48.662Z,4.74
2019-02-11T00:26:19.394Z,4.77
2019-02-11T00:28:49.871Z,4.78
2019-02-11T00:31:20.698Z,4.85
2019-02-11T00:33:55.157Z,4.91
2019-02-11T00:36:25.558Z,4.95
2019-02-11T00:38:56.077Z,4.99
2019-02-11T00:41:26.401Z,5.03
2019-02-11T00:43:56.989Z,5.07
2019-02-11T00:46:27.924Z,5.11
2019-02-11T00:48:58.437Z,5.05
2019-02-11T00:51:28.779Z,5.11
2019-02-11T00:53:59.434Z,5.13
2019-02-11T00:56:29.675Z,5.17
2019-02-11T00:58:59.953Z,5.21
2019-02-11T01:01:30.396Z,5.20
2019-02-11T01:04:01.751Z,5.23
2019-02-11T01:06:32.022Z,5.18
2019-02-11T01:09:02.675Z,5.14
2019-02-11T01:11:32.886Z,5.16
2019-02-11T01:14:03.157Z,5.17
2019-02-11T01:16:33.445Z,5.16
2019-02-11T01:19:04.712Z,5.16
2019-02-11T01:21:34.988Z,5.17
2019-02-11T01:24:05.633Z,5.19
2019-02-11T01:26:35.946Z,5.20
2019-02-11T01:29:06.256Z,5.20
2019-02-11T01:31:36.754Z,5.21
2019-02-11T01:34:08.399Z,5.25
2019-02-11T01:36:39.067Z,5.26
2019-02-11T01:39:10.926Z,5.31
2019-02-11T01:41:41.654Z,5.33
2019-02-11T01:44:11.930Z,5.37
2019-02-11T01:46:42.498Z,5.41
2019-02-11T01:49:12.850Z,5.42
2019-02-11T01:51:43.665Z,5.41
2019-02-11T01:54:14.141Z,5.43
2019-02-11T01:56:44.506Z,5.46
2019-02-11T01:59:15.185Z,5.51
2019-02-11T02:01:45.603Z,5.48
2019-02-11T02:04:16.058Z,5.56
2019-02-11T02:06:46.579Z,5.59
2019-02-11T02:09:16.952Z,5.62
2019-02-11T02:11:47.300Z,5.66
2019-02-11T02:14:17.528Z,5.70
2019-02-11T02:16:47.907Z,5.77
2019-02-11T02:19:18.299Z,5.78
2019-02-11T02:21:48.885Z,5.79
2019-02-11T02:24:20.146Z,5.82
2019-02-11T02:26:50.626Z,5.84
2019-02-11T02:29:22.055Z,5.88
2019-02-11T02:31:52.606Z,5.91
2019-02-11T02:34:22.856Z,5.97
2019-02-11T02:36:53.360Z,5.97
2019-02-11T02:39:23.867Z,6.01
2019-02-11T02:41:54.194Z,5.99
2019-02-11T02:44:24.441Z,6.00
2019-02-11T02:46:54.798Z,6.01
2019-02-11T02:49:26.205Z,6.00
2019-02-11T02:51:56.863Z,6.01
2019-02-11T02:54:27.875Z,6.02
2019-02-11T02:56:58.208Z,5.97
2019-02-11T02:59:28.659Z,5.96
2019-02-11T03:01:59.234Z,6.01
2019-02-11T03:04:30.005Z,6.01
2019-02-11T03:07:00.348Z,6.00
2019-02-11T03:09:30.990Z,6.00
2019-02-11T03:12:01.305Z,6.01
2019-02-11T03:14:31.742Z,6.04
2019-02-11T03:17:02.747Z,6.01
2019-02-11T03:19:33.146Z,6.01
2019-02-11T03:22:03.473Z,5.98
2019-02-11T03:24:34.901Z,5.97
2019-02-11T03:27:06.267Z,6.00
2019-02-11T03:29:36.516Z,5.99
2019-02-11T03:32:07.907Z,5.97
2019-02-11T03:34:38.317Z,5.96
2019-02-11T03:37:10.855Z,5.97
2019-02-11T03:39:41.749Z,6.00
2019-02-11T03:42:12.098Z,5.99
2019-02-11T03:44:42.492Z,6.03
2019-02-11T03:47:13.079Z,6.04
2019-02-11T03:49:43.427Z,6.02
2019-02-11T03:52:14.136Z,6.00
2019-02-11T03:54:44.845Z,6.01
2019-02-11T03:57:16.215Z,6.04
2019-02-11T03:59:46.481Z,5.99
2019-02-11T04:02:16.986Z,6.03
2019-02-11T04:04:47.994Z,6.03
2019-02-11T04:07:18.355Z,5.99
2019-02-11T04:09:48.796Z,6.01
2019-02-11T04:12:19.105Z,6.00
2019-02-11T04:14:49.303Z,6.03
2019-02-11T04:17:19.628Z,6.04
2019-02-11T04:19:50.075Z,6.03
2019-02-11T04:22:20.374Z,5.97
2019-02-11T04:24:51.067Z,5.97
2019-02-11T04:27:21.330Z,5.98
2019-02-11T04:29:51.805Z,5.97
2019-02-11T04:32:22.080Z,5.97
2019-02-11T04:34:53.459Z,5.98
2019-02-11T04:37:23.857Z,5.98
2019-02-11T04:39:54.229Z,5.97
2019-02-11T04:42:24.911Z,6.01
2019-02-11T04:44:55.216Z,5.98
2019-02-11T04:47:25.510Z,5.95
2019-02-11T04:49:55.834Z,5.95
2019-02-11T04:52:26.970Z,5.92
2019-02-11T04:54:57.340Z,5.91
2019-02-11T04:57:27.611Z,5.88
2019-02-11T04:59:57.965Z,5.85
2019-02-11T05:02:28.754Z,5.79
2019-02-11T05:04:59.195Z,5.82
2019-02-11T05:07:29.450Z,5.84
2019-02-11T05:09:59.724Z,5.80
2019-02-11T05:12:30.079Z,5.81
2019-02-11T05:15:00.338Z,5.80
2019-02-11T05:17:30.672Z,5.81
2019-02-11T05:20:01.341Z,5.83
2019-02-11T05:22:31.896Z,5.85
2019-02-11T05:25:02.415Z,5.80
2019-02-11T05:27:32.747Z,5.79
2019-02-11T05:30:03.093Z,5.85
2019-02-11T05:32:33.329Z,5.84
2019-02-11T05:35:03.701Z,5.84
2019-02-11T05:37:35.268Z,5.82
2019-02-11T05:40:06.599Z,5.79
2019-02-11T05:42:36.896Z,5.79
2019-02-11T05:45:07.443Z,5.79
2019-02-11T05:47:38.011Z,5.74
2019-02-11T05:50:09.020Z,5.77
2019-02-11T05:52:39.464Z,5.75
2019-02-11T05:55:09.725Z,5.74
2019-02-11T05:57:40.191Z,5.72
2019-02-11T06:00:11.870Z,5.70
2019-02-11T06:02:42.097Z,5.69
2019-02-11T06:05:12.402Z,5.71
2019-02-11T06:07:42.739Z,5.76
2019-02-11T06:10:13.053Z,5.77
2019-02-11T06:12:43.673Z,5.76
2019-02-11T06:15:14.193Z,5.78
2019-02-11T06:17:44.510Z,5.75
2019-02-11T06:20:14.848Z,5.77
2019-02-11T06:22:45.200Z,5.76
2019-02-11T06:25:15.956Z,5.75
2019-02-11T06:27:46.240Z,5.78
2019-02-11T06:30:16.961Z,5.77
2019-02-11T06:32:47.438Z,5.75
2019-02-11T06:35:17.848Z,5.74
2019-02-11T06:37:48.187Z,5.76
2019-02-11T06:40:18.791Z,5.80
2019-02-11T06:42:49.914Z,5.77
2019-02-11T06:45:20.783Z,5.80
2019-02-11T06:47:51.013Z,5.80
2019-02-11T06:50:23.253Z,5.82
2019-02-11T06:52:54.252Z,5.79
2019-02-11T06:55:24.456Z,5.80
2019-02-11T06:57:54.687Z,5.77
2019-02-11T07:00:26.496Z,5.77
2019-02-11T07:02:56.923Z,5.76
2019-02-11T07:05:27.407Z,5.76
2019-02-11T07:07:57.747Z,5.74
2019-02-11T07:10:28.076Z,5.65
2019-02-11T07:12:58.304Z,5.63
2019-02-11T07:15:28.584Z,5.53
2019-02-11T07:17:58.892Z,5.51
2019-02-11T07:20:29.404Z,5.47
2019-02-11T07:23:00.046Z,5.43
2019-02-11T07:25:32.563Z,5.42
2019-02-11T07:28:03.180Z,5.42
2019-02-11T07:30:33.398Z,5.43
2019-02-11T07:33:03.770Z,5.46
2019-02-11T07:35:34.174Z,5.46
2019-02-11T07:38:04.869Z,5.46
2019-02-11T07:40:35.065Z,5.44
2019-02-11T07:43:22.600Z,5.42
2019-02-11T07:45:58.944Z,5.38
2019-02-11T07:48:29.665Z,5.40
2019-02-11T07:50:59.912Z,5.34
2019-02-11T07:53:30.248Z,5.38
2019-02-11T07:56:00.930Z,5.39
2019-02-11T07:58:33.651Z,5.42
2019-02-11T08:01:04.007Z,5.45
2019-02-11T08:03:34.273Z,5.45
2019-02-11T08:06:04.798Z,5.48
2019-02-11T08:08:35.295Z,5.60
2019-02-11T08:11:05.651Z,5.66
2019-02-11T08:13:35.952Z,5.72
2019-02-11T08:16:06.400Z,5.75
2019-02-11T08:18:36.720Z,5.86
2019-02-11T08:21:07.363Z,5.86
2019-02-11T08:23:37.859Z,5.82
2019-02-11T08:26:08.376Z,5.80
2019-02-11T08:28:38.930Z,5.84
2019-02-11T08:31:09.269Z,5.82
2019-02-11T08:33:39.965Z,5.81
2019-02-11T08:36:10.614Z,5.84
2019-02-11T08:38:41.364Z,5.90
2019-02-11T08:41:13.837Z,5.93
2019-02-11T08:43:44.147Z,5.97
2019-02-11T08:46:14.474Z,5.99
2019-02-11T08:48:45.349Z,6.01
2019-02-11T08:51:15.982Z,6.10
2019-02-11T08:53:46.472Z,6.25
2019-02-11T08:56:17.166Z,6.24
2019-02-11T08:58:47.444Z,6.19
2019-02-11T09:01:17.722Z,6.21
2019-02-11T09:03:48.100Z,6.18
2019-02-11T09:06:18.967Z,6.06
2019-02-11T09:08:49.550Z,6.07
2019-02-11T09:11:20.174Z,6.13
2019-02-11T09:13:50.477Z,6.07
2019-02-11T09:16:21.021Z,6.12
2019-02-11T09:18:51.953Z,6.06
2019-02-11T09:21:22.489Z,6.17
2019-02-11T09:23:53.865Z,6.30
2019-02-11T09:26:24.139Z,6.40
2019-02-11T09:28:54.467Z,6.26
2019-02-11T09:31:25.367Z,6.32
2019-02-11T09:33:56.182Z,6.29
2019-02-11T09:36:26.521Z,6.34
2019-02-11T09:38:58.261Z,6.53
2019-02-11T09:41:29.385Z,6.51
2019-02-11T09:43:59.717Z,6.47
2019-02-11T09:46:30.165Z,6.76
2019-02-11T09:49:00.598Z,6.94
2019-02-11T09:51:31.736Z,6.88
2019-02-11T09:54:02.167Z,6.94
2019-02-11T09:56:32.579Z,7.05
2019-02-11T09:59:03.005Z,7.15
2019-02-11T10:01:33.630Z,7.12
2019-02-11T10:04:03.958Z,7.50
2019-02-11T10:06:34.228Z,7.40
2019-02-11T10:09:05.926Z,7.48
2019-02-11T10:11:36.997Z,7.23
2019-02-11T10:14:07.497Z,7.15
2019-02-11T10:16:37.998Z,7.34
2019-02-11T10:19:08.483Z,7.41
2019-02-11T10:21:39.082Z,7.49
2019-02-11T10:24:10.105Z,8.37
2019-02-11T10:26:40.614Z,9.07
2019-02-11T10:29:10.890Z,9.47
2019-02-11T10:31:41.633Z,10.03
2019-02-11T10:34:13.709Z,10.34
2019-02-11T10:36:44.305Z,10.08
2019-02-11T10:39:15.040Z,10.43
2019-02-11T10:41:46.425Z,10.59
2019-02-11T10:44:16.885Z,10.38
2019-02-11T10:46:47.190Z,11.06
2019-02-11T10:49:17.792Z,11.40
2019-02-11T10:51:48.400Z,11.32
2019-02-11T10:54:18.660Z,11.27
2019-02-11T10:56:50.072Z,11.16
2019-02-11T10:59:20.614Z,11.19
2019-02-11T11:01:50.979Z,11.60
2019-02-11T11:04:21.508Z,10.96
2019-02-11T11:06:51.881Z,11.55
2019-02-11T11:09:22.260Z,11.46
2019-02-11T11:11:52.954Z,11.27
2019-02-11T11:14:23.262Z,10.54
2019-02-11T11:16:53.547Z,9.95
2019-02-11T11:19:23.942Z,10.04
2019-02-11T11:21:54.499Z,10.36
2019-02-11T11:24:24.850Z,10.61
2019-02-11T11:26:55.430Z,10.16
2019-02-11T11:29:25.922Z,9.37
2019-02-11T11:31:56.203Z,8.91
2019-02-11T11:34:26.991Z,8.31
2019-02-11T11:36:58.312Z,8.03
2019-02-11T11:39:28.557Z,7.70
2019-02-11T11:41:58.875Z,7.64
2019-02-11T11:44:29.125Z,7.64
2019-02-11T11:46:59.857Z,7.38
2019-02-11T11:49:30.287Z,7.00
2019-02-11T11:52:00.543Z,7.18
2019-02-11T11:54:31.099Z,7.37
2019-02-11T11:57:01.666Z,7.44
2019-02-11T11:59:32.295Z,7.35
2019-02-11T12:02:02.532Z,7.29
2019-02-11T12:04:32.974Z,7.26
2019-02-11T12:07:03.683Z,7.22
2019-02-11T12:09:33.983Z,7.37
2019-02-11T12:12:04.682Z,7.34
2019-02-11T12:14:35.272Z,7.38
2019-02-11T12:17:05.500Z,7.55
2019-02-11T12:19:36.094Z,7.65
2019-02-11T12:22:06.361Z,7.67
2019-02-11T12:24:36.705Z,7.73
2019-02-11T12:27:06.965Z,7.61
2019-02-11T12:29:37.398Z,7.56
2019-02-11T12:32:07.579Z,7.63
2019-02-11T12:34:37.970Z,7.67
2019-02-11T12:37:09.879Z,7.75
2019-02-11T12:39:40.474Z,7.81
2019-02-11T12:42:10.982Z,7.68
2019-02-11T12:44:41.628Z,7.65
2019-02-11T12:47:14.658Z,7.52
2019-02-11T12:49:44.197Z,7.44
2019-02-11T12:52:15.083Z,7.43
2019-02-11T12:54:45.745Z,7.37
2019-02-11T12:57:16.080Z,7.48
2019-02-11T12:59:46.360Z,7.62
2019-02-11T13:02:17.691Z,7.69
2019-02-11T13:04:50.105Z,7.71
2019-02-11T13:07:20.427Z,7.74
2019-02-11T13:09:50.761Z,7.65
2019-02-11T13:12:22.291Z,7.47
2019-02-11T13:14:52.694Z,7.42
2019-02-11T13:17:34.035Z,7.50
2019-02-11T13:20:07.395Z,7.55
2019-02-11T13:22:28.396Z,7.59
2019-02-11T13:24:58.651Z,7.57
2019-02-11T13:27:29.004Z,7.53
2019-02-11T13:29:59.314Z,7.47
2019-02-11T13:32:29.721Z,7.49
2019-02-11T13:35:00.470Z,7.33
2019-02-11T13:37:30.713Z,7.21
2019-02-11T13:40:01.108Z,7.28
2019-02-11T13:42:31.515Z,7.29
2019-02-11T13:45:02.090Z,7.37
2019-02-11T13:47:50.856Z,7.33
2019-02-11T13:50:05.183Z,7.38
2019-02-11T13:52:35.600Z,7.55
2019-02-11T13:55:06.335Z,7.68
2019-02-11T13:57:36.900Z,7.68
2019-02-11T14:00:13.307Z,7.65
2019-02-11T14:02:48.364Z,7.59
2019-02-11T14:05:18.874Z,7.50
2019-02-11T14:07:49.493Z,7.55
2019-02-11T14:10:20.400Z,7.58
2019-02-11T14:12:51.488Z,7.48
2019-02-11T14:15:21.849Z,7.56
2019-02-11T14:18:09.461Z,7.51
2019-02-11T14:20:25.671Z,7.46
2019-02-11T14:22:56.365Z,7.48
2019-02-11T14:25:42.341Z,7.43
2019-02-11T14:27:59.407Z,7.27
2019-02-11T14:30:29.780Z,7.31
2019-02-11T14:33:00.409Z,7.34
2019-02-11T14:35:31.119Z,7.27
2019-02-11T14:38:02.842Z,7.23
2019-02-11T14:40:34.727Z,7.24
2019-02-11T14:43:04.979Z,7.22
2019-02-11T14:45:35.335Z,7.09
2019-02-11T14:48:05.983Z,7.07
2019-02-11T14:50:36.619Z,7.14
2019-02-11T14:53:08.075Z,7.18
2019-02-11T14:55:39.637Z,7.15
2019-02-11T14:58:10.196Z,7.14
2019-02-11T15:00:40.844Z,7.16
2019-02-11T15:03:11.736Z,7.10
2019-02-11T15:05:42.028Z,7.03
2019-02-11T15:08:12.628Z,6.98
2019-02-11T15:10:43.096Z,6.98
2019-02-11T15:13:13.844Z,6.92
2019-02-11T15:15:44.253Z,6.84
2019-02-11T15:18:15.229Z,6.81
2019-02-11T15:20:46.693Z,6.80
2019-02-11T15:23:16.963Z,6.79
2019-02-11T15:25:50.489Z,6.80
2019-02-11T15:28:30.414Z,6.77
2019-02-11T15:31:01.592Z,6.72
2019-02-11T15:33:31.877Z,6.76
2019-02-11T15:36:02.240Z,6.76
2019-02-11T15:38:32.909Z,6.66
2019-02-11T15:41:03.258Z,6.63
2019-02-11T15:43:33.503Z,6.54
2019-02-11T15:46:11.832Z,6.46
2019-02-11T15:48:43.338Z,6.38
2019-02-11T15:51:13.987Z,6.33
2019-02-11T15:53:44.300Z,6.23
2019-02-11T15:56:14.686Z,6.11
2019-02-11T15:58:45.336Z,6.06
2019-02-11T16:01:15.779Z,6.06
2019-02-11T16:03:46.561Z,5.98
2019-02-11T16:06:16.850Z,5.88
2019-02-11T16:08:47.325Z,5.80
2019-02-11T16:11:17.638Z,5.75
2019-02-11T16:13:49.072Z,5.67
2019-02-11T16:16:19.442Z,5.60
2019-02-11T16:18:51.828Z,5.45
2019-02-11T16:21:21.692Z,5.35
2019-02-11T16:23:52.095Z,5.31
2019-02-11T16:26:22.937Z,5.24
2019-02-11T16:28:53.926Z,5.15
2019-02-11T16:31:26.704Z,5.09
2019-02-11T16:33:58.857Z,5.01
2019-02-11T16:36:29.259Z,4.96
2019-02-11T16:38:59.799Z,4.95
2019-02-11T16:41:30.832Z,4.90
2019-02-11T16:44:01.769Z,4.88
2019-02-11T16:46:33.010Z,4.87
2019-02-11T16:49:04.507Z,4.81
2019-02-11T16:51:34.925Z,4.81
2019-02-11T16:54:05.686Z,4.82
2019-02-11T16:56:36.238Z,4.82
2019-02-11T16:59:07.283Z,4.78
2019-02-11T17:01:38.574Z,4.73
2019-02-11T17:04:09.036Z,4.72
2019-02-11T17:06:39.690Z,4.70
2019-02-11T17:09:10.631Z,4.66
2019-02-11T17:11:40.928Z,4.65
2019-02-11T17:14:11.371Z,4.62
2019-02-11T17:16:41.826Z,4.66
2019-02-11T17:19:12.161Z,4.68
2019-02-11T17:21:42.405Z,4.72
2019-02-11T17:24:12.809Z,4.73
2019-02-11T17:26:43.078Z,4.76
2019-02-11T17:29:13.913Z,4.77
2019-02-11T17:31:45.250Z,4.75
2019-02-11T17:34:15.983Z,4.75
2019-02-11T17:36:47.227Z,4.72
2019-02-11T17:39:17.620Z,4.62
2019-02-11T17:41:49.008Z,4.54
2019-02-11T17:44:19.389Z,4.55
2019-02-11T17:46:49.912Z,4.51
2019-02-11T17:49:20.610Z,4.49
2019-02-11T17:51:52.243Z,4.49
2019-02-11T17:54:23.029Z,4.47
2019-02-11T17:56:54.909Z,4.48
2019-02-11T17:59:25.425Z,4.40
2019-02-11T18:01:56.121Z,4.43
2019-02-11T18:04:26.422Z,4.41
2019-02-11T18:06:57.347Z,4.31
2019-02-11T18:09:28.711Z,4.32
2019-02-11T18:11:58.946Z,4.30
2019-02-11T18:14:29.351Z,4.23
2019-02-11T18:16:59.798Z,4.19
2019-02-11T18:19:30.220Z,4.20
2019-02-11T18:22:00.469Z,4.18
2019-02-11T18:24:31.240Z,4.16
2019-02-11T18:27:01.998Z,4.15
2019-02-11T18:29:32.331Z,4.16
2019-02-11T18:32:02.786Z,4.15
2019-02-11T18:34:34.076Z,4.11
2019-02-11T18:37:04.385Z,4.07
2019-02-11T18:39:34.806Z,4.05
2019-02-11T18:42:05.795Z,4.07
2019-02-11T18:44:36.097Z,4.15
2019-02-11T18:47:06.423Z,4.11
2019-02-11T18:49:36.793Z,4.07
2019-02-11T18:52:07.305Z,4.03
2019-02-11T18:54:37.758Z,4.00
2019-02-11T18:57:08.202Z,3.96
2019-02-11T18:59:38.467Z,3.95
2019-02-11T19:02:10.461Z,3.92
2019-02-11T19:04:40.916Z,3.91
2019-02-11T19:07:11.299Z,3.90
2019-02-11T19:09:42.648Z,3.92
2019-02-11T19:12:12.963Z,3.93
2019-02-11T19:14:43.571Z,3.90
2019-02-11T19:17:13.933Z,3.91
2019-02-11T19:19:44.262Z,3.92
2019-02-11T19:22:14.611Z,3.92
2019-02-11T19:24:45.186Z,3.85
2019-02-11T19:27:15.515Z,3.83
2019-02-11T19:29:45.934Z,3.85
2019-02-11T19:32:17.197Z,3.86
2019-02-11T19:34:48.781Z,3.84
2019-02-11T19:37:19.152Z,3.82
2019-02-11T19:39:49.867Z,3.80
2019-02-11T19:42:20.858Z,3.80
2019-02-11T19:44:54.081Z,3.81
2019-02-11T19:47:24.422Z,3.84
2019-02-11T19:49:56.822Z,3.83
2019-02-11T19:52:27.713Z,3.80
2019-02-11T19:54:58.396Z,3.83
2019-02-11T19:57:32.438Z,3.86
2019-02-11T20:00:02.799Z,3.87
2019-02-11T20:02:33.220Z,3.83
2019-02-11T20:05:04.938Z,3.83
2019-02-11T20:07:36.281Z,3.89
2019-02-11T20:10:07.849Z,3.94
2019-02-11T20:12:38.115Z,3.93
2019-02-11T20:15:10.894Z,3.94
2019-02-11T20:17:45.702Z,3.93
2019-02-11T20:20:18.149Z,3.87
2019-02-11T20:22:48.851Z,3.85
2019-02-11T20:25:19.728Z,3.79
2019-02-11T20:27:52.318Z,3.75
2019-02-11T20:30:24.483Z,3.73
2019-02-11T20:32:54.860Z,3.69
2019-02-11T20:35:26.329Z,3.68
2019-02-11T20:38:13.090Z,3.64
2019-02-11T20:40:35.821Z,3.64
2019-02-11T20:43:06.101Z,3.59
2019-02-11T20:45:36.407Z,3.60
2019-02-11T20:48:06.650Z,3.64
2019-02-11T20:50:36.964Z,3.58
2019-02-11T20:53:07.600Z,3.56
2019-02-11T20:55:38.195Z,3.52
2019-02-11T20:58:09.107Z,3.50
2019-02-11T21:00:39.618Z,3.47
2019-02-11T21:03:10.005Z,3.43
2019-02-11T21:05:40.452Z,3.41
2019-02-11T21:08:11.022Z,3.40
2019-02-11T21:10:41.336Z,3.40
2019-02-11T21:13:11.978Z,3.36
2019-02-11T21:15:42.458Z,3.32
2019-02-11T21:18:12.993Z,3.35
2019-02-11T21:20:43.423Z,3.36
2019-02-11T21:23:14.549Z,3.32
2019-02-11T21:25:45.607Z,3.34
2019-02-11T21:28:15.868Z,3.32
2019-02-11T21:30:46.171Z,3.32
2019-02-11T21:33:16.484Z,3.30
2019-02-11T21:35:46.932Z,3.29
2019-02-11T21:38:17.125Z,3.29
2019-02-11T21:40:47.410Z,3.34
2019-02-11T21:43:17.681Z,3.38
2019-02-11T21:45:48.299Z,3.41
2019-02-11T21:48:18.825Z,3.42
2019-02-11T21:50:49.117Z,3.43
2019-02-11T21:53:19.675Z,3.44
2019-02-11T21:55:50.989Z,3.39
2019-02-11T21:58:21.458Z,3.40
2019-02-11T22:01:01.842Z,3.39
2019-02-11T22:03:26.166Z,3.43
2019-02-11T22:05:56.663Z,3.41
2019-02-11T22:08:28.174Z,3.46
2019-02-11T22:10:58.532Z,3.50
2019-02-11T22:13:29.024Z,3.51
2019-02-11T22:15:59.313Z,3.46
2019-02-11T22:18:29.711Z,3.45
2019-02-11T22:21:00.007Z,3.38
2019-02-11T22:23:30.506Z,3.36
2019-02-11T22:26:00.782Z,3.37
2019-02-11T22:28:31.091Z,3.34
2019-02-11T22:31:01.678Z,3.35
2019-02-11T22:33:32.318Z,3.36
2019-02-11T22:36:02.743Z,3.33
2019-02-11T22:38:32.963Z,3.36
2019-02-11T22:41:03.284Z,3.37
2019-02-11T22:43:33.646Z,3.37
2019-02-11T22:46:07.139Z,3.38
2019-02-11T22:48:38.081Z,3.39
2019-02-11T22:51:08.384Z,3.38
2019-02-11T22:53:38.915Z,3.41
2019-02-11T22:56:09.443Z,3.41
2019-02-11T22:58:39.773Z,3.42
2019-02-11T23:01:10.630Z,3.46
2019-02-11T23:03:41.041Z,3.47
2019-02-11T23:06:11.566Z,3.45
2019-02-11T23:08:41.854Z,3.45
2019-02-11T23:11:12.292Z,3.49
2019-02-11T23:13:42.890Z,3.49
2019-02-11T23:16:13.191Z,3.54
2019-02-11T23:18:43.497Z,3.58
2019-02-11T23:21:13.788Z,3.64
2019-02-11T23:23:44.583Z,3.71
2019-02-11T23:26:15.047Z,3.73
2019-02-11T23:28:45.614Z,3.73
2019-02-11T23:31:16.039Z,3.69
2019-02-11T23:33:49.536Z,3.70
2019-02-11T23:36:20.288Z,3.73
2019-02-11T23:38:51.039Z,3.74
2019-02-11T23:41:21.520Z,3.73
2019-02-11T23:43:52.340Z,3.71
2019-02-11T23:46:22.936Z,3.55
2019-02-11T23:48:53.640Z,3.58
2019-02-11T23:51:23.930Z,3.69
2019-02-11T23:53:54.350Z,3.67
2019-02-11T23:56:24.809Z,3.68
2019-02-11T23:58:55.254Z,3.70
